Time;durP1;ratioP1;P1;durP2;ratioP2;P2;SDS_P1;SDS_P2;PMS_P1;PMS_P2;Temp;Humidity;BMP_temperature;BMP_pressure;BME280_temperature;BME280_humidity;BME280_pressure;Samples;Min_cycle;Max_cycle;Signal;HPM_P1;HPM_P2
2022/11/16 00:01:18;;;;;;;5.70;3.90;;;6.40;99.90;;;;;;5091946;28;20530;-54
2022/11/16 00:03:46;;;;;;;4.80;4.30;;;6.40;99.90;;;;;;5091385;28;20534;-54
2022/11/16 00:06:14;;;;;;;6.07;4.90;;;6.40;99.90;;;;;;5091811;28;20518;-54
2022/11/16 00:08:43;;;;;;;4.30;3.90;;;6.10;99.90;;;;;;5090895;28;20440;-54
2022/11/16 00:11:12;;;;;;;3.77;3.20;;;6.30;99.90;;;;;;5091831;28;20436;-54
2022/11/16 00:13:40;;;;;;;2.87;2.37;;;6.40;99.90;;;;;;5091443;28;20566;-54
2022/11/16 00:16:13;;;;;;;3.10;2.80;;;6.60;99.90;;;;;;5091775;28;20523;-55
2022/11/16 00:18:40;;;;;;;5.60;4.43;;;6.70;99.90;;;;;;5091467;28;20530;-54
2022/11/16 00:21:07;;;;;;;4.90;4.50;;;6.70;99.90;;;;;;5091205;28;20543;-55
2022/11/16 00:23:37;;;;;;;2.97;2.67;;;6.60;99.90;;;;;;5091016;28;21007;-54
2022/11/16 00:26:07;;;;;;;6.40;3.17;;;6.20;99.90;;;;;;5091332;28;20444;-55
2022/11/16 00:28:34;;;;;;;2.63;2.43;;;6.00;99.90;;;;;;5091491;28;20440;-54
2022/11/16 00:31:02;;;;;;;3.00;2.37;;;6.20;99.90;;;;;;5091489;28;20440;-54
2022/11/16 00:33:29;;;;;;;3.63;2.50;;;6.20;99.90;;;;;;5090845;28;20571;-54
2022/11/16 00:35:56;;;;;;;4.03;2.30;;;6.40;99.90;;;;;;5091557;28;20526;-55
2022/11/16 00:38:24;;;;;;;2.80;1.97;;;6.60;99.90;;;;;;5090542;28;20893;-54
2022/11/16 00:40:50;;;;;;;2.07;1.43;;;6.70;99.90;;;;;;5091309;28;20472;-55
2022/11/16 00:43:19;;;;;;;3.60;2.87;;;6.80;99.90;;;;;;5090872;28;20546;-54
2022/11/16 00:45:46;;;;;;;5.60;3.77;;;6.70;99.90;;;;;;5090991;28;21089;-54
2022/11/16 00:48:13;;;;;;;5.20;3.60;;;6.60;99.90;;;;;;5091257;28;20876;-54
2022/11/16 00:50:40;;;;;;;4.07;2.70;;;6.30;99.90;;;;;;5091204;28;20515;-54
2022/11/16 00:53:08;;;;;;;3.67;3.30;;;6.20;99.90;;;;;;5090961;28;20559;-54
2022/11/16 00:55:35;;;;;;;3.30;2.60;;;5.60;99.90;;;;;;5091115;28;20439;-54
2022/11/16 00:58:01;;;;;;;3.20;2.40;;;5.60;99.90;;;;;;5090745;28;20937;-54
2022/11/16 01:00:30;;;;;;;2.97;1.63;;;6.10;99.90;;;;;;5090742;28;20494;-55
2022/11/16 01:02:57;;;;;;;2.20;1.57;;;6.40;99.90;;;;;;5090525;28;20910;-54
2022/11/16 01:05:24;;;;;;;1.83;1.60;;;6.60;99.90;;;;;;5090978;28;20444;-55
2022/11/16 01:07:51;;;;;;;5.07;3.47;;;6.80;99.90;;;;;;5090665;28;20614;-54
2022/11/16 01:10:20;;;;;;;4.57;3.50;;;6.80;99.90;;;;;;5091230;28;20522;-55
2022/11/16 01:12:47;;;;;;;4.90;3.60;;;6.00;99.90;;;;;;5090529;28;20575;-54
2022/11/16 01:15:15;;;;;;;3.77;3.30;;;5.40;99.90;;;;;;5090598;28;20450;-54
2022/11/16 01:17:43;;;;;;;3.93;2.90;;;5.60;99.90;;;;;;5090752;28;20443;-54
2022/11/16 01:20:13;;;;;;;3.67;3.10;;;5.90;99.90;;;;;;5090093;28;20440;-55
2022/11/16 01:22:40;;;;;;;3.93;3.27;;;6.20;99.90;;;;;;5090821;28;20542;-54
2022/11/16 01:25:09;;;;;;;3.70;2.80;;;6.40;99.90;;;;;;5090428;28;20478;-54
2022/11/16 01:27:36;;;;;;;4.13;3.73;;;6.20;99.90;;;;;;5090520;28;20530;-54
2022/11/16 01:30:03;;;;;;;4.97;3.97;;;6.40;99.90;;;;;;5090669;28;20523;-55
2022/11/16 01:32:30;;;;;;;6.40;4.20;;;6.50;99.90;;;;;;5090423;28;20568;-54
2022/11/16 01:34:58;;;;;;;5.37;3.60;;;6.60;99.90;;;;;;5090067;28;21012;-56
2022/11/16 01:37:26;;;;;;;3.60;2.80;;;6.50;99.90;;;;;;5089402;28;20953;-55
2022/11/16 01:39:53;;;;;;;4.00;3.07;;;6.60;99.90;;;;;;5090594;28;20482;-54
2022/11/16 01:42:22;;;;;;;5.40;3.83;;;6.70;99.90;;;;;;5090173;28;20464;-54
2022/11/16 01:44:58;;;;;;;3.60;3.00;;;6.70;99.90;;;;;;5090234;28;20531;-54
2022/11/16 01:47:25;;;;;;;5.23;4.73;;;6.80;99.90;;;;;;5090300;28;20518;-54
2022/11/16 01:49:59;;;;;;;6.03;5.43;;;6.70;99.90;;;;;;5089870;28;20876;-54
2022/11/16 01:52:30;;;;;;;7.23;5.73;;;6.80;99.90;;;;;;5090417;28;20577;-54
2022/11/16 01:54:57;;;;;;;5.40;4.90;;;6.70;99.90;;;;;;5090112;28;20543;-55
2022/11/16 01:57:28;;;;;;;13.00;11.40;;;6.70;99.90;;;;;;5090491;28;20440;-55
2022/11/16 01:59:58;;;;;;;4.57;4.17;;;6.60;99.90;;;;;;5090263;28;20527;-55
2022/11/16 02:02:25;;;;;;;26.90;21.40;;;6.70;99.90;;;;;;5090684;28;20882;-54
2022/11/16 02:04:54;;;;;;;39.77;24.83;;;6.80;99.90;;;;;;5090046;28;20534;-54
2022/11/16 02:09:52;;;;;;;33.17;24.03;;;6.70;99.90;;;;;;5089959;28;20475;-54
2022/11/16 02:10:36;;;;;;;21.73;16.27;;;6.70;99.90;;;;;;5090068;28;20436;-54
2022/11/16 02:13:17;;;;;;;19.97;13.60;;;6.60;99.90;;;;;;5090010;28;20550;-54
2022/11/16 02:15:48;;;;;;;7.50;6.30;;;6.60;99.90;;;;;;5090000;28;20467;-54
2022/11/16 02:18:26;;;;;;;11.00;8.43;;;6.70;99.90;;;;;;5090511;28;20533;-54
2022/11/16 02:21:09;;;;;;;14.33;9.30;;;6.70;99.90;;;;;;5090340;28;20522;-54
2022/11/16 02:24:17;;;;;;;30.67;22.97;;;6.80;99.90;;;;;;5128885;22;20637;-48
2022/11/16 02:27:25;;;;;;;20.67;14.47;;;6.80;99.90;;;;;;5069813;28;20515;-50
2022/11/16 02:29:54;;;;;;;6.43;5.30;;;6.80;99.90;;;;;;5069910;28;20483;-48
2022/11/16 02:32:28;;;;;;;8.90;5.70;;;6.20;99.90;;;;;;5069984;28;20540;-49
2022/11/16 02:35:00;;;;;;;6.70;4.67;;;5.90;99.90;;;;;;5073161;28;20533;-50
2022/11/16 02:37:33;;;;;;;5.87;4.57;;;6.30;99.90;;;;;;5073039;28;20527;-49
2022/11/16 02:40:03;;;;;;;5.90;4.27;;;6.50;99.90;;;;;;5073618;28;20525;-48
2022/11/16 02:42:34;;;;;;;4.03;3.60;;;6.70;99.90;;;;;;5073300;28;20496;-49
2022/11/16 02:45:05;;;;;;;6.23;5.63;;;6.90;99.90;;;;;;5073107;28;20469;-48
2022/11/16 02:47:34;;;;;;;9.07;7.43;;;7.00;99.90;;;;;;5072968;28;20483;-48
2022/11/16 02:50:04;;;;;;;7.87;7.07;;;6.90;99.90;;;;;;5072909;28;20473;-47
2022/11/16 02:52:31;;;;;;;8.50;6.47;;;6.90;99.90;;;;;;5073213;28;20461;-49
2022/11/16 02:54:58;;;;;;;6.87;5.00;;;6.80;99.90;;;;;;5072730;28;20532;-48
2022/11/16 02:57:43;;;;;;;9.63;7.73;;;6.90;99.90;;;;;;5072777;28;20524;-48
2022/11/16 03:00:17;;;;;;;5.90;4.90;;;6.90;99.90;;;;;;5072815;28;20927;-50
2022/11/16 03:02:50;;;;;;;2.70;2.33;;;7.00;99.90;;;;;;5072979;28;20536;-48
2022/11/16 03:05:30;;;;;;;2.87;2.53;;;7.00;99.90;;;;;;5072694;28;20528;-49
2022/11/16 03:08:06;;;;;;;3.00;1.90;;;7.10;99.90;;;;;;5072591;28;20556;-49
2022/11/16 03:13:26;;;;;;;5.50;4.60;;;7.20;99.90;;;;;;5072300;28;20499;-49
2022/11/16 03:15:56;;;;;;;4.30;3.90;;;7.20;99.90;;;;;;5072989;28;20472;-48
2022/11/16 03:18:26;;;;;;;4.20;3.63;;;7.20;99.90;;;;;;5072682;28;20440;-49
2022/11/16 03:20:57;;;;;;;4.67;2.40;;;6.30;99.90;;;;;;5072757;28;20445;-49
2022/11/16 03:23:23;;;;;;;3.03;2.67;;;6.30;99.90;;;;;;5072095;28;20554;-49
2022/11/16 03:25:52;;;;;;;5.60;2.97;;;6.50;99.90;;;;;;5072564;28;20534;-48
2022/11/16 03:28:26;;;;;;;5.80;3.53;;;6.70;99.90;;;;;;5072926;28;20531;-48
2022/11/16 03:30:58;;;;;;;4.30;3.60;;;6.80;99.90;;;;;;5072273;28;20812;-49
2022/11/16 03:33:30;;;;;;;5.13;3.83;;;6.90;99.90;;;;;;5071908;28;20894;-50
2022/11/16 03:36:02;;;;;;;4.80;3.23;;;6.90;99.90;;;;;;5072140;28;20532;-50
2022/11/16 03:38:32;;;;;;;3.20;2.73;;;6.50;99.90;;;;;;5071954;28;20544;-49
2022/11/16 03:41:02;;;;;;;3.73;2.90;;;6.00;99.90;;;;;;5071886;28;20441;-48
2022/11/16 03:43:31;;;;;;;2.90;2.60;;;6.10;99.90;;;;;;5071678;28;20559;-47
2022/11/16 03:45:59;;;;;;;2.53;2.30;;;6.30;99.90;;;;;;5071706;28;20539;-46
2022/11/16 03:48:34;;;;;;;2.53;2.30;;;6.40;99.90;;;;;;5071924;28;20462;-46
2022/11/16 03:51:01;;;;;;;2.93;2.50;;;6.60;99.90;;;;;;5072001;28;20546;-46
2022/11/16 03:53:28;;;;;;;3.57;2.70;;;6.80;99.90;;;;;;5071620;28;20874;-46
2022/11/16 03:55:55;;;;;;;2.70;2.50;;;6.90;99.90;;;;;;5071827;28;20480;-46
2022/11/16 03:58:22;;;;;;;2.83;2.53;;;7.00;99.90;;;;;;5071878;28;20540;-46
2022/11/16 04:00:49;;;;;;;3.50;2.43;;;7.10;99.90;;;;;;5071938;28;20476;-46
2022/11/16 04:03:17;;;;;;;3.10;2.63;;;7.10;99.90;;;;;;5071182;28;20557;-48
2022/11/16 04:25:08;;;;;;;4.50;4.03;;;7.10;99.90;;;;;;5071153;28;20490;-47
2022/11/16 04:30:20;;;;;;;15.13;13.33;;;7.00;99.90;;;;;;5070888;28;20740;-47
2022/11/16 04:38:18;;;;;;;13.10;11.80;;;7.10;99.90;;;;;;5052614;28;20519;-48
2022/11/16 04:40:46;;;;;;;12.43;10.97;;;7.00;99.90;;;;;;5071039;28;20519;-46
2022/11/16 04:43:12;;;;;;;7.40;5.93;;;6.90;99.90;;;;;;5070636;28;20452;-46
2022/11/16 04:48:23;;;;;;;15.13;9.23;;;7.00;99.90;;;;;;5070742;28;20276;-47
2022/11/16 04:50:51;;;;;;;12.67;9.90;;;7.10;99.90;;;;;;5070646;28;20494;-46
2022/11/16 04:53:19;;;;;;;10.73;7.47;;;7.10;99.90;;;;;;5070430;28;20563;-48
2022/11/16 04:55:46;;;;;;;8.77;6.03;;;7.20;99.90;;;;;;5070191;28;20449;-47
2022/11/16 04:58:12;;;;;;;11.53;7.33;;;7.30;99.90;;;;;;5070527;28;20527;-46
2022/11/16 05:00:39;;;;;;;7.53;4.97;;;7.30;99.90;;;;;;5070685;28;20446;-46
2022/11/16 05:03:06;;;;;;;6.27;5.67;;;7.30;99.90;;;;;;5070486;28;20543;-48
2022/11/16 05:05:33;;;;;;;6.27;4.93;;;7.30;99.90;;;;;;5070716;28;20493;-46
2022/11/16 05:08:01;;;;;;;10.13;5.40;;;7.30;99.90;;;;;;5070351;28;20535;-47
2022/11/16 05:10:28;;;;;;;4.90;4.40;;;7.30;99.90;;;;;;5070656;28;20458;-46
2022/11/16 05:12:55;;;;;;;6.50;4.77;;;7.30;99.90;;;;;;5070131;28;20605;-46
2022/11/16 05:15:22;;;;;;;5.90;4.23;;;7.30;99.90;;;;;;5070729;28;20444;-47
2022/11/16 05:17:49;;;;;;;14.90;10.57;;;7.30;99.90;;;;;;5070476;28;21029;-46
2022/11/16 05:23:03;;;;;;;15.60;12.20;;;7.30;99.90;;;;;;5070109;28;20454;-48
2022/11/16 05:25:29;;;;;;;13.97;12.33;;;7.30;99.90;;;;;;5069874;28;20945;-46
2022/11/16 05:27:56;;;;;;;7.70;6.90;;;7.30;99.90;;;;;;5070425;28;20479;-48
2022/11/16 05:30:22;;;;;;;6.73;5.10;;;7.40;99.90;;;;;;5070606;28;20532;-46
2022/11/16 05:32:49;;;;;;;7.57;4.53;;;7.40;99.90;;;;;;5070451;28;20456;-46
2022/11/16 05:35:16;;;;;;;12.07;11.00;;;7.30;99.90;;;;;;5070402;28;20911;-48
2022/11/16 05:37:43;;;;;;;13.57;12.33;;;7.20;99.90;;;;;;5069914;28;20536;-45
2022/11/16 05:40:12;;;;;;;14.33;12.90;;;7.20;99.90;;;;;;5069823;28;20524;-46
2022/11/16 05:42:39;;;;;;;14.47;12.97;;;7.20;99.90;;;;;;5070285;28;20491;-46
2022/11/16 05:45:07;;;;;;;10.47;8.70;;;7.20;99.90;;;;;;5070061;28;20521;-46
2022/11/16 05:47:34;;;;;;;9.90;7.93;;;6.70;99.90;;;;;;5070337;28;20523;-47
2022/11/16 05:50:00;;;;;;;7.53;6.07;;;6.50;99.90;;;;;;5069801;28;20532;-46
2022/11/16 05:52:27;;;;;;;7.77;6.77;;;6.60;99.90;;;;;;5070266;28;20551;-47
2022/11/16 05:54:54;;;;;;;6.40;4.97;;;6.80;99.90;;;;;;5069914;28;20563;-46
2022/11/16 05:57:22;;;;;;;9.83;8.60;;;6.80;99.90;;;;;;5070186;28;20574;-47
2022/11/16 05:59:49;;;;;;;7.17;6.20;;;6.80;99.90;;;;;;5070560;28;20472;-47
2022/11/16 06:02:16;;;;;;;7.93;6.77;;;6.20;99.90;;;;;;5070142;28;20935;-48
2022/11/16 06:04:43;;;;;;;7.00;6.43;;;6.10;99.90;;;;;;5070454;28;20532;-48
2022/11/16 06:07:10;;;;;;;9.47;6.40;;;6.30;99.90;;;;;;5070937;28;20515;-48
2022/11/16 06:09:36;;;;;;;6.90;6.20;;;6.60;99.90;;;;;;5073922;28;20813;-48
2022/11/16 06:12:04;;;;;;;7.03;6.33;;;6.80;99.90;;;;;;5074164;28;20999;-48
2022/11/16 06:14:32;;;;;;;7.87;6.07;;;6.90;99.90;;;;;;5073283;28;20546;-48
2022/11/16 06:16:59;;;;;;;6.17;5.57;;;7.00;99.90;;;;;;5073697;28;20440;-47
2022/11/16 06:19:26;;;;;;;5.27;4.77;;;7.00;99.90;;;;;;5074265;28;20448;-47
2022/11/16 06:21:53;;;;;;;4.97;4.10;;;7.10;99.90;;;;;;5072948;28;20588;-48
2022/11/16 06:24:20;;;;;;;3.50;3.20;;;7.10;99.90;;;;;;5073554;28;20520;-49
2022/11/16 06:26:46;;;;;;;3.50;2.53;;;7.00;99.90;;;;;;5072311;28;20535;-46
2022/11/16 06:29:13;;;;;;;4.67;3.50;;;7.10;99.90;;;;;;5071290;28;20443;-47
2022/11/16 06:31:42;;;;;;;5.17;4.67;;;7.20;99.90;;;;;;5072715;28;20452;-49
2022/11/16 06:34:09;;;;;;;8.60;6.77;;;7.20;99.90;;;;;;5073515;28;20498;-47
2022/11/16 06:36:36;;;;;;;4.83;4.40;;;7.20;99.90;;;;;;5073424;28;20539;-47
2022/11/16 06:39:02;;;;;;;7.80;7.00;;;7.10;99.90;;;;;;5072047;28;20788;-47
2022/11/16 06:41:30;;;;;;;7.83;6.23;;;7.20;99.90;;;;;;5072275;28;20962;-47
2022/11/16 06:43:57;;;;;;;8.60;6.90;;;7.10;99.90;;;;;;5072224;28;20464;-48
2022/11/16 06:46:24;;;;;;;6.90;6.20;;;7.10;99.90;;;;;;5073204;28;20530;-48
2022/11/16 06:48:52;;;;;;;7.87;6.90;;;7.00;99.90;;;;;;5073219;28;20475;-50
2022/11/16 06:51:19;;;;;;;8.03;7.00;;;7.00;99.90;;;;;;5073315;28;20527;-48
2022/11/16 06:53:46;;;;;;;7.80;6.97;;;6.90;99.90;;;;;;5072740;28;20479;-47
2022/11/16 06:56:15;;;;;;;8.17;6.77;;;6.90;99.90;;;;;;5073239;28;20520;-49
2022/11/16 06:58:42;;;;;;;8.60;6.67;;;6.80;99.90;;;;;;5073251;28;20452;-49
2022/11/16 07:01:10;;;;;;;6.47;4.33;;;6.90;99.90;;;;;;5073258;28;20437;-47
2022/11/16 07:03:37;;;;;;;6.73;5.10;;;6.90;99.90;;;;;;5073171;28;20472;-48
2022/11/16 07:06:11;;;;;;;6.83;4.60;;;6.90;99.90;;;;;;5072836;28;21023;-48
2022/11/16 07:08:39;;;;;;;5.13;4.70;;;6.90;99.90;;;;;;5072659;28;20878;-49
2022/11/16 07:11:07;;;;;;;8.03;5.00;;;6.90;99.90;;;;;;5073187;28;20472;-47
2022/11/16 07:13:35;;;;;;;7.13;5.33;;;7.10;99.90;;;;;;5072677;28;20465;-50
2022/11/16 07:16:03;;;;;;;6.00;5.33;;;7.00;99.90;;;;;;5072580;28;20479;-48
2022/11/16 07:18:33;;;;;;;6.47;5.90;;;7.10;99.90;;;;;;5072539;28;20522;-48
2022/11/16 07:20:59;;;;;;;8.00;5.93;;;7.10;99.90;;;;;;5072682;28;20455;-49
2022/11/16 07:23:30;;;;;;;7.27;6.57;;;7.20;99.90;;;;;;5072147;28;20555;-48
2022/11/16 07:26:00;;;;;;;9.83;8.30;;;7.20;99.90;;;;;;5072539;28;20564;-48
2022/11/16 07:28:28;;;;;;;7.50;6.80;;;7.20;99.90;;;;;;5072449;28;20878;-48
2022/11/16 07:30:55;;;;;;;10.73;7.30;;;7.20;99.90;;;;;;5072697;28;20536;-48
2022/11/16 07:33:22;;;;;;;8.93;7.80;;;7.20;99.90;;;;;;5072454;28;20496;-49
2022/11/16 07:35:49;;;;;;;10.10;8.00;;;7.20;99.90;;;;;;5072353;28;20559;-48
2022/11/16 07:38:15;;;;;;;11.50;8.60;;;7.20;99.90;;;;;;5071877;28;20965;-48
2022/11/16 07:40:44;;;;;;;9.37;8.43;;;7.30;99.90;;;;;;5072221;28;20447;-48
2022/11/16 07:43:11;;;;;;;11.20;10.00;;;7.30;99.90;;;;;;5071831;28;20461;-48
2022/11/16 07:45:38;;;;;;;11.60;10.43;;;7.30;99.90;;;;;;5071973;28;20960;-48
2022/11/16 07:48:05;;;;;;;17.20;15.40;;;7.30;99.90;;;;;;5071960;28;20872;-48
2022/11/16 07:50:32;;;;;;;14.63;13.13;;;7.10;99.90;;;;;;5071968;28;20476;-48
2022/11/16 07:52:59;;;;;;;13.77;12.47;;;7.10;99.90;;;;;;5072229;28;20544;-48
2022/11/16 07:55:30;;;;;;;16.00;14.43;;;7.10;99.90;;;;;;5072201;28;21027;-48
2022/11/16 07:57:59;;;;;;;16.83;15.27;;;7.20;99.90;;;;;;5071987;28;20907;-49
2022/11/16 08:00:25;;;;;;;17.00;14.43;;;7.20;99.90;;;;;;5071843;28;20448;-48
2022/11/16 08:02:52;;;;;;;16.10;13.13;;;7.20;99.90;;;;;;5071563;28;20503;-45
2022/11/16 08:05:19;;;;;;;14.53;10.93;;;7.30;99.90;;;;;;5072011;28;20439;-47
2022/11/16 08:07:46;;;;;;;17.83;15.93;;;7.30;99.90;;;;;;5071839;28;20480;-49
2022/11/16 08:10:13;;;;;;;23.37;19.53;;;7.20;99.90;;;;;;5071886;28;20519;-48
2022/11/16 08:12:40;;;;;;;18.40;16.70;;;7.20;99.90;;;;;;5071581;28;20993;-49
2022/11/16 08:15:10;;;;;;;16.80;15.10;;;7.30;99.90;;;;;;5071155;28;20559;-48
2022/11/16 08:17:36;;;;;;;14.93;13.50;;;7.30;99.90;;;;;;5071414;28;20452;-48
2022/11/16 08:20:04;;;;;;;13.50;12.23;;;7.20;99.90;;;;;;5071763;28;20437;-49
2022/11/16 08:22:31;;;;;;;12.47;11.27;;;7.20;99.90;;;;;;5073105;28;20555;-47
2022/11/16 08:24:59;;;;;;;49.83;33.90;;;7.20;99.90;;;;;;5071070;28;20819;-48
2022/11/16 08:27:27;;;;;;;20.00;16.50;;;7.20;99.90;;;;;;5071427;28;21008;-49
2022/11/16 08:29:54;;;;;;;13.20;10.97;;;7.30;99.90;;;;;;5070752;28;20453;-48
2022/11/16 08:32:23;;;;;;;14.10;11.70;;;7.30;99.90;;;;;;5070396;28;20509;-48
2022/11/16 08:34:50;;;;;;;13.83;12.37;;;7.20;99.90;;;;;;5070989;28;20479;-47
2022/11/16 08:37:17;;;;;;;14.70;12.83;;;7.20;99.90;;;;;;5070922;28;20952;-47
2022/11/16 08:39:44;;;;;;;14.77;13.37;;;7.20;99.90;;;;;;5071314;28;20487;-48
2022/11/16 08:42:11;;;;;;;15.37;13.40;;;7.20;99.90;;;;;;5071476;28;20464;-47
2022/11/16 08:44:38;;;;;;;12.27;10.77;;;7.20;99.90;;;;;;5071016;28;20863;-51
2022/11/16 08:47:05;;;;;;;12.10;10.43;;;7.20;99.90;;;;;;5070970;28;20444;-48
2022/11/16 08:49:33;;;;;;;14.43;13.03;;;7.10;99.90;;;;;;5070931;28;20884;-48
2022/11/16 08:52:00;;;;;;;13.90;12.50;;;6.90;99.90;;;;;;5070818;28;20837;-48
2022/11/16 08:54:28;;;;;;;13.30;11.97;;;6.90;99.90;;;;;;5070533;28;20512;-49
2022/11/16 08:56:55;;;;;;;11.27;10.17;;;6.90;99.90;;;;;;5070727;28;20830;-47
2022/11/16 08:59:22;;;;;;;13.50;12.10;;;7.10;99.90;;;;;;5071145;28;20437;-48
2022/11/16 09:01:49;;;;;;;22.80;19.40;;;7.30;99.90;;;;;;5071016;28;20528;-47
2022/11/16 09:04:17;;;;;;;19.03;15.73;;;7.30;99.90;;;;;;5070582;28;20819;-49
2022/11/16 09:06:46;;;;;;;13.40;11.67;;;7.30;99.90;;;;;;5070863;28;20857;-47
2022/11/16 09:09:12;;;;;;;11.87;10.60;;;7.30;99.90;;;;;;5070509;28;21024;-44
2022/11/16 09:11:39;;;;;;;10.67;9.50;;;7.40;99.90;;;;;;5070739;28;20448;-47
2022/11/16 09:14:06;;;;;;;18.07;11.00;;;7.30;99.90;;;;;;5070578;28;20529;-49
2022/11/16 09:16:33;;;;;;;9.67;7.30;;;7.40;99.90;;;;;;5070928;28;20709;-48
2022/11/16 09:19:01;;;;;;;9.40;6.67;;;7.40;99.90;;;;;;5070856;28;20480;-47
2022/11/16 09:21:29;;;;;;;6.43;5.47;;;7.30;99.90;;;;;;5070614;28;20984;-48
2022/11/16 09:23:58;;;;;;;6.03;5.53;;;7.20;99.90;;;;;;5069779;28;20560;-48
2022/11/16 09:26:25;;;;;;;8.27;5.70;;;7.20;99.90;;;;;;5070707;28;20539;-47
2022/11/16 09:28:55;;;;;;;6.47;5.78;;;7.40;99.90;;;;;;5070237;28;20434;-49
2022/11/16 09:31:22;;;;;;;5.70;5.20;;;7.50;99.90;;;;;;5070653;28;20194;-48
2022/11/16 09:33:49;;;;;;;7.07;5.97;;;7.50;99.90;;;;;;5070035;28;21035;-50
2022/11/16 09:36:16;;;;;;;10.60;8.77;;;7.60;99.90;;;;;;5070363;28;20563;-47
2022/11/16 09:38:44;;;;;;;11.53;10.40;;;7.60;99.90;;;;;;5070484;28;20524;-47
2022/11/16 09:41:28;;;;;;;55.30;41.10;;;7.70;99.90;;;;;;5070960;28;20825;-47
2022/11/16 09:44:00;;;;;;;17.93;15.10;;;7.70;99.90;;;;;;5074254;28;20551;-47
2022/11/16 09:46:32;;;;;;;10.40;8.97;;;7.70;99.90;;;;;;5074285;28;20526;-48
2022/11/16 09:49:02;;;;;;;10.27;9.20;;;7.70;99.90;;;;;;5074524;28;20638;-47
2022/11/16 09:51:33;;;;;;;9.40;8.40;;;7.70;99.90;;;;;;5074457;28;20651;-48
2022/11/16 09:54:05;;;;;;;12.43;11.13;;;7.70;99.90;;;;;;5074467;28;20613;-48
2022/11/16 09:56:37;;;;;;;14.03;12.73;;;7.70;99.90;;;;;;5074162;28;20503;-48
2022/11/16 09:59:09;;;;;;;15.30;13.90;;;7.70;99.90;;;;;;5074461;28;20523;-46
2022/11/16 10:01:41;;;;;;;18.57;16.77;;;7.80;99.90;;;;;;5074386;28;20448;-48
2022/11/16 10:04:11;;;;;;;19.10;17.40;;;7.80;99.90;;;;;;5073953;28;20535;-48
2022/11/16 10:06:47;;;;;;;20.07;18.00;;;7.80;99.90;;;;;;5074059;28;20432;-48
2022/11/16 10:09:14;;;;;;;17.70;15.80;;;7.90;99.90;;;;;;5073925;28;20431;-47
2022/11/16 10:11:54;;;;;;;23.57;19.00;;;7.90;99.90;;;;;;5074177;28;20527;-48
2022/11/16 10:14:39;;;;;;;18.70;15.20;;;7.90;99.90;;;;;;5073483;28;20980;-48
2022/11/16 10:17:13;;;;;;;15.73;13.80;;;8.00;99.90;;;;;;5073939;28;20451;-48
2022/11/16 10:19:51;;;;;;;12.20;10.27;;;7.90;99.90;;;;;;5073832;28;20539;-48
2022/11/16 10:22:34;;;;;;;11.23;9.50;;;7.90;99.90;;;;;;5073908;28;20468;-49
2022/11/16 10:25:07;;;;;;;11.37;9.33;;;8.00;99.90;;;;;;5073244;28;21024;-48
2022/11/16 10:27:45;;;;;;;12.30;11.10;;;8.00;99.90;;;;;;5072407;28;20452;-50
2022/11/16 10:30:14;;;;;;;17.10;15.47;;;8.00;99.90;;;;;;5073569;28;20879;-48
2022/11/16 10:32:47;;;;;;;13.40;12.20;;;8.10;99.90;;;;;;5074012;28;20514;-49
2022/11/16 10:35:18;;;;;;;13.73;12.63;;;8.10;99.90;;;;;;5073124;28;20538;-49
2022/11/16 10:37:48;;;;;;;12.77;11.57;;;8.20;99.90;;;;;;5072699;28;20448;-49
2022/11/16 10:40:23;;;;;;;9.20;8.40;;;8.20;99.90;;;;;;5070408;28;20636;-49
2022/11/16 10:43:04;;;;;;;9.80;8.80;;;8.00;99.90;;;;;;5052775;28;20536;-51
2022/11/16 10:45:38;;;;;;;10.13;9.20;;;8.00;99.90;;;;;;5053090;28;20524;-49
2022/11/16 10:48:15;;;;;;;10.40;9.47;;;8.00;99.90;;;;;;5052674;28;20444;-47
2022/11/16 10:50:44;;;;;;;12.30;11.10;;;8.00;99.90;;;;;;5052945;28;20469;-47
2022/11/16 10:53:14;;;;;;;15.30;12.00;;;8.10;99.90;;;;;;5051867;28;20458;-48
2022/11/16 10:55:41;;;;;;;10.17;8.77;;;8.10;99.90;;;;;;5052676;28;20484;-48
2022/11/16 10:58:09;;;;;;;11.43;9.00;;;8.00;99.90;;;;;;5053104;28;20876;-48
2022/11/16 11:00:44;;;;;;;12.30;10.73;;;8.00;99.90;;;;;;5052752;28;20556;-51
2022/11/16 11:03:10;;;;;;;8.23;7.30;;;8.10;99.90;;;;;;5052704;28;20466;-52
2022/11/16 11:05:48;;;;;;;12.27;9.43;;;8.20;99.90;;;;;;5053058;28;20536;-48
2022/11/16 11:08:25;;;;;;;10.10;5.47;;;8.30;99.90;;;;;;5052927;28;20540;-49
2022/11/16 11:11:00;;;;;;;6.27;5.67;;;8.00;99.90;;;;;;5064212;28;20814;-47
2022/11/16 11:13:29;;;;;;;5.87;5.20;;;8.00;99.90;;;;;;5072470;28;20468;-49
2022/11/16 11:16:16;;;;;;;4.73;4.23;;;8.10;99.90;;;;;;5072486;28;20504;-49
2022/11/16 11:18:43;;;;;;;5.97;4.70;;;8.20;99.90;;;;;;5072293;28;21000;-47
2022/11/16 11:21:17;;;;;;;4.47;3.93;;;8.20;99.90;;;;;;5072670;28;20479;-51
2022/11/16 11:23:47;;;;;;;5.93;4.70;;;8.30;99.90;;;;;;5071734;28;20486;-49
2022/11/16 11:26:33;;;;;;;16.93;12.50;;;8.30;99.90;;;;;;5072363;28;20981;-49
2022/11/16 11:29:05;;;;;;;19.43;12.97;;;8.30;99.90;;;;;;5072164;28;20954;-48
2022/11/16 11:31:38;;;;;;;8.60;7.60;;;8.30;99.90;;;;;;5071663;28;20481;-51
2022/11/16 11:34:16;;;;;;;6.00;5.40;;;8.30;99.90;;;;;;5071315;28;20520;-49
2022/11/16 11:36:47;;;;;;;8.10;5.93;;;8.40;99.90;;;;;;5071453;28;20992;-50
2022/11/16 11:39:32;;;;;;;10.93;8.20;;;8.40;99.90;;;;;;5071754;28;20581;-48
2022/11/16 11:42:05;;;;;;;14.60;11.43;;;8.40;99.90;;;;;;5072176;28;20464;-50
2022/11/16 11:44:42;;;;;;;11.80;9.30;;;8.40;99.90;;;;;;5068848;28;20472;-49
2022/11/16 11:47:38;;;;;;;10.00;7.63;;;8.40;99.90;;;;;;5071757;28;20451;-49
2022/11/16 11:50:13;;;;;;;8.63;7.60;;;8.50;99.90;;;;;;5072040;28;20523;-48
2022/11/16 11:52:45;;;;;;;9.93;7.30;;;8.50;99.90;;;;;;5071270;28;20467;-48
2022/11/16 11:55:15;;;;;;;6.80;5.77;;;8.40;99.90;;;;;;5069981;28;20563;-51
2022/11/16 11:57:44;;;;;;;6.00;5.40;;;8.40;99.90;;;;;;5070513;28;20558;-50
2022/11/16 12:00:16;;;;;;;9.43;8.30;;;8.40;99.90;;;;;;5070734;28;20447;-48
2022/11/16 12:02:58;;;;;;;9.27;8.40;;;8.50;99.90;;;;;;5070167;28;21001;-48
2022/11/16 12:05:49;;;;;;;8.87;8.10;;;8.40;99.90;;;;;;5069586;28;21013;-50
2022/11/16 12:08:29;;;;;;;8.20;7.40;;;8.50;99.90;;;;;;5070483;28;20523;-48
2022/11/16 12:11:04;;;;;;;8.60;7.63;;;8.50;99.90;;;;;;5071343;28;20447;-49
2022/11/16 12:13:51;;;;;;;7.57;6.73;;;8.60;99.90;;;;;;5070363;28;20471;-48
2022/11/16 12:16:31;;;;;;;7.37;6.63;;;8.60;99.90;;;;;;5071006;28;20993;-48
2022/11/16 12:19:10;;;;;;;8.53;7.63;;;8.50;99.90;;;;;;5061833;28;20537;-49
2022/11/16 12:21:49;;;;;;;7.90;7.10;;;8.50;99.90;;;;;;5070979;28;20480;-48
2022/11/16 12:24:38;;;;;;;7.53;6.50;;;8.50;99.90;;;;;;5070072;28;20434;-50
2022/11/16 12:27:14;;;;;;;7.70;6.87;;;8.60;99.90;;;;;;5070495;28;20517;-49
2022/11/16 12:29:48;;;;;;;7.90;7.00;;;8.50;99.90;;;;;;5071688;28;20440;-49
2022/11/16 12:32:33;;;;;;;9.40;8.27;;;8.50;99.90;;;;;;5071207;28;20459;-46
2022/11/16 12:35:24;;;;;;;10.83;9.83;;;8.30;99.90;;;;;;5070520;28;20440;-47
2022/11/16 12:37:59;;;;;;;11.00;9.90;;;8.20;99.90;;;;;;5059957;28;20448;-46
2022/11/16 12:40:47;;;;;;;46.00;31.27;;;8.40;99.90;;;;;;5071285;28;20526;-47
2022/11/16 12:43:22;;;;;;;13.63;12.23;;;8.40;99.90;;;;;;5070685;28;20465;-46
2022/11/16 12:46:06;;;;;;;11.73;10.50;;;8.50;99.90;;;;;;5067350;28;20516;-47
2022/11/16 12:49:00;;;;;;;11.30;9.77;;;8.60;99.90;;;;;;5070007;28;20817;-48
2022/11/16 12:51:39;;;;;;;9.63;8.80;;;8.60;99.90;;;;;;5068735;28;20441;-47
2022/11/16 12:54:34;;;;;;;11.10;8.33;;;8.50;99.90;;;;;;5068056;28;20475;-48
2022/11/16 12:57:09;;;;;;;9.00;7.67;;;8.50;99.90;;;;;;5069507;28;20917;-49
2022/11/16 12:59:55;;;;;;;12.50;9.07;;;8.50;99.90;;;;;;5070074;28;20476;-47
2022/11/16 13:02:33;;;;;;;10.10;8.80;;;8.50;99.90;;;;;;5070850;28;20544;-48
2022/11/16 13:05:04;;;;;;;7.83;6.83;;;8.50;99.90;;;;;;5069638;28;20528;-48
2022/11/16 13:07:37;;;;;;;7.83;7.03;;;8.60;99.90;;;;;;5070541;28;20483;-48
2022/11/16 13:10:15;;;;;;;9.03;7.57;;;8.60;99.90;;;;;;5070646;28;20988;-48
2022/11/16 13:12:44;;;;;;;10.30;8.60;;;8.60;99.90;;;;;;5069887;28;21023;-48
2022/11/16 13:15:18;;;;;;;10.70;7.20;;;8.60;99.90;;;;;;5070196;28;20442;-47
2022/11/16 13:17:51;;;;;;;9.30;7.90;;;8.60;99.90;;;;;;5069711;28;20475;-48
2022/11/16 13:20:38;;;;;;;8.13;7.20;;;8.50;99.90;;;;;;5070751;28;20535;-48
2022/11/16 13:23:10;;;;;;;10.40;8.27;;;8.40;99.90;;;;;;5070217;28;20886;-48
2022/11/16 13:25:42;;;;;;;8.30;7.40;;;8.30;99.90;;;;;;5070019;28;20520;-48
2022/11/16 13:28:21;;;;;;;8.13;7.17;;;8.20;99.90;;;;;;5069332;28;21031;-48
2022/11/16 13:30:58;;;;;;;6.50;5.70;;;8.20;99.90;;;;;;5057586;28;20464;-51
2022/11/16 13:33:33;;;;;;;8.00;7.20;;;8.20;99.90;;;;;;5069046;28;20539;-52
2022/11/16 13:36:42;;;;;;;8.30;6.50;;;8.40;99.90;;;;;;5070014;28;20482;-49
2022/11/16 13:39:10;;;;;;;7.30;5.70;;;8.40;99.90;;;;;;5069625;28;20448;-51
2022/11/16 13:41:39;;;;;;;6.90;6.10;;;8.30;99.90;;;;;;5069901;28;21021;-52
2022/11/16 13:44:22;;;;;;;6.80;6.10;;;8.20;99.90;;;;;;5069774;28;20933;-49
2022/11/16 13:46:52;;;;;;;7.27;6.33;;;8.30;99.90;;;;;;5052876;28;20969;-49